CheckWX is a tool to help pilots better visualize weather data.  It is not intended as a substitute for an official pre-flight weather briefing.

19:16:14 UTC

DAUZ METAR
In Aménas Airport
Aménas, Algeria
Current

1 hour ago

DAUZ 261800Z 34016KT 7000 NSC 31/06 Q1009
Observed
May-26 @ 18:00 UTC
Wind
  • 340° at 16 KTS
Visibility
7,001 meters
Flight Rules
MVFR
Cloud Levels
  • Clear skies
Temperature
31°C / 88°F
Dewpoint
C / 43°F
Humidity
21%
Altimeter
29.79" Hg
Pressure
1008.92 hPa
Previous

2 hours ago

DAUZ 261700Z 30012KT 280V340 7000 NSC 33/04 Q1008
Observed
May-26 @ 17:00 UTC
Wind
  • 300° at 12 KTS
Visibility
7,001 meters
Flight Rules
MVFR
Cloud Levels
  • Clear skies
Temperature
33°C / 91°F
Dewpoint
C / 39°F
Humidity
16%
Altimeter
29.76" Hg
Pressure
1007.92 hPa
Previous

3 hours ago

DAUZ 261600Z 26010KT 5000 NSC 34/03 Q1008
Observed
May-26 @ 16:00 UTC
Wind
  • 260° at 10 KTS
Visibility
5,005 meters
Flight Rules
MVFR
Cloud Levels
  • Clear skies
Temperature
34°C / 93°F
Dewpoint
C / 37°F
Humidity
14%
Altimeter
29.76" Hg
Pressure
1007.92 hPa